Weather at Pangsuma Airport

Public forecast

Using degrees Celsius for public forecast. Weather courtesy of forecast.io.

Closest aviation weather report (METAR) to Pangsuma Airport

Closest report is Simanggang Airport, 91.4 nm (169.3 km) WNW.

(retrieved 0 seconds ago)

Closest aviation forecast (TAF) to Pangsuma Airport

Closest forecast is Sibu Airport, 102.9 nm (190.6 km) NNW.

2024/04/22 12:00 (retrieved 1 hour ago)

TAF WBGS 221100Z 2212/2312 VRB03KT 9999 SCT016